x

Central Caribbean - 210 Nm Sse Of Kingston, Jamaica (42058) Wave Buoy

7:50am - Sat 25th Jun 2016 All times are EST. -5 hours from GMT.

  • Sig Wave height 9.2ft
  • Swell Direction
  • Peak Period 9s
  • Average Period 6s
  • Wind
    25mph, 29mph gusts
  • Sea Temp 83°f
  • Air Temp 84°f
  • Sea Pressure 1013.7mb
  • Central Caribbean - 210 Nm Sse Of Kingston, Jamaica
  • Central Caribbean - 210 Nm Sse Of Kingston, Jamaica

More Historic Weather Station data

Upgrade to MSW Pro to gain access to the past 30 days of data for over 8000 Wavebouys and Weather Stations around the globe.

Join Pro

Comparision Forecast

View Surf forecast
   
Sat 06/25 7:50am 9ft 9s 6s 25 29 mph 1013.7mb 83f 84f
6:50am 9ft 8s 6s 25 31 mph 1013.3mb 83f 84f
5:50am 9ft 8s 6s 25 29 mph 1012.3mb 83f 83f
4:50am 9ft 8s 6s 22 29 mph 1012mb 83f 83f
3:50am 9ft 8s 6s 25 29 mph 1012.1mb 83f 83f
2:50am 9ft 8s 6s 25 31 mph 1012.5mb 83f 83f
1:50am 10ft 8s 7s 27 31 mph 1012.8mb 83f 83f
12:50am 8.5ft 7s 6s 25 31 mph 1013.1mb 83f 83f
Fri 06/24 11:50pm 9ft 8s 6s 25 29 mph 1013.7mb 83f 83f
10:50pm 9ft 8s 6s 25 29 mph 1014.5mb 83f 83f
9:50pm 9.5ft 8s 6s 22 29 mph 1014.6mb 83f 83f
8:50pm 9.5ft 8s 6s 25 29 mph 1014.2mb 83f 83f
7:50pm 8ft 8s 6s 25 29 mph 1013.6mb 83f 83f
6:50pm 9ft 8s 6s 22 29 mph 1012.8mb 83f 83f
5:50pm 9ft 8s 6s 22 29 mph 1012.6mb 83f 84f
4:50pm 8ft 8s 6s 25 29 mph 1012.3mb 83f 84f
3:50pm 8ft 8s 6s 25 29 mph 1012.4mb 83f 84f
2:50pm 8.5ft 8s 6s 22 29 mph 1012.7mb 83f 84f
1:50pm 8.5ft 8s 6s 22 25 mph 1013.2mb 83f 84f
12:50pm 8.5ft 8s 6s 22 27 mph 1013.6mb 83f 84f
11:50am 9.5ft 8s 6s 22 25 mph 1013.9mb 83f 83f
10:50am 8ft 8s 6s 22 25 mph 1014.3mb 83f 84f
9:50am 9ft 8s 6s 22 27 mph 1014.2mb 83f 83f
8:50am 8.5ft 9s 6s 22 27 mph 1014.6mb 83f 84f
7:50am 9ft 8s 6s 27 31 mph 1013.7mb 83f 84f
6:50am 9.5ft 8s 6s 25 31 mph 1013.4mb 83f 83f
5:50am 9ft 8s 6s 25 31 mph 1013.1mb 83f 83f
4:50am 9ft 8s 6s 25 29 mph 1012.9mb 83f 83f
3:50am 9ft 8s 6s 25 29 mph 1012.7mb 83f 83f
2:50am 9.5ft 8s 6s 27 31 mph 1012.6mb 83f 83f
1:50am 9ft 8s 6s 27 31 mph 1013mb 83f 83f
12:50am 8.5ft 8s 6s 27 31 mph 1013.5mb 83f 83f
Thu 06/23 11:50pm 9ft 8s 6s 27 31 mph 1013.9mb 83f 83f
10:50pm 8ft 9s 6s 22 27 mph 1014.6mb 83f 83f
9:50pm 9ft 8s 6s 22 25 mph 1014.9mb 83f 83f
8:50pm 8.5ft 8s 6s 22 27 mph 1014.5mb 83f 84f
7:50pm 8ft 8s 6s 22 27 mph 1014.3mb 83f 84f
6:50pm 8.5ft 8s 6s 20 27 mph 1013.8mb 83f 83f
5:50pm 9ft 8s 6s 22 27 mph 1013.2mb 83f 84f
4:50pm 8ft 8s 6s 22 27 mph 1012.5mb 83f 84f
3:50pm 9.5ft 8s 6s 22 27 mph 1012.4mb 83f 84f
2:50pm 8ft 8s 6s 20 27 mph 1013mb 83f 84f
1:50pm 9.5ft 8s 6s 22 25 mph 1013.5mb 83f 83f
12:50pm 8.5ft 8s 6s 25 29 mph 1014.2mb 83f 84f
11:50am 9.5ft 8s 6s 25 29 mph 1014.8mb 83f 84f
10:50am 9.5ft 8s 6s 22 27 mph 1015.7mb 83f 84f
9:50am 9ft 8s 6s 25 29 mph 1015.8mb 83f 84f
8:50am 9.5ft 8s 6s 22 27 mph 1015.6mb 83f 84f
7:50am 9ft 8s 6s 25 29 mph 1015.2mb 83f 84f
6:50am 8.5ft 7s 6s 22 27 mph 1014.7mb 83f 83f
5:50am 8.5ft 8s 6s 25 29 mph 1014.3mb 83f 83f
4:50am 8ft 8s 6s 25 29 mph 1014mb 83f 83f
2:50am 7.5ft 8s 6s 25 29 mph 1013.7mb 83f 83f
1:50am 7ft 8s 6s 25 29 mph 1014.1mb 83f 83f
12:50am 8ft 8s 6s 22 27 mph 1014.6mb 83f 83f
Wed 06/22 11:50pm 7.5ft 8s 6s 22 29 mph 1015.2mb 83f 83f
9:50pm 8ft 8s 6s 22 27 mph 1015.4mb 83f 83f
8:50pm 8ft 8s 6s 22 27 mph 1015mb 83f 83f
7:50pm 7.5ft 8s 6s 20 25 mph 1014.8mb 83f 83f
6:50pm 7.5ft 8s 6s 18 22 mph 1014.4mb 83f 83f
5:50pm 8ft 8s 6s 20 25 mph 1013.6mb 83f 83f
4:50pm 8ft 8s 6s 18 22 mph 1013.5mb 83f 84f
3:50pm 8ft 8s 6s 18 22 mph 1013.7mb 83f 84f
2:50pm 8ft 8s 6s 20 22 mph 1013.7mb 83f 84f
1:50pm 9ft 8s 6s 22 25 mph 1013.9mb 83f 84f
12:50pm 8.5ft 9s 6s 20 25 mph 1014.4mb 83f 84f
11:50am 9ft 8s 6s 22 27 mph 1014.4mb 83f 83f
10:50am 9ft 8s 6s 22 27 mph 1014.7mb 83f 84f
9:50am 9ft 8s 6s 22 27 mph 1014.6mb 83f 83f
8:50am 9.5ft 8s 6s 25 31 mph 1014.2mb 83f 83f
7:50am 9ft 8s 6s 27 31 mph 1014mb 83f 84f
6:50am 9ft 8s 6s 27 31 mph 1013.7mb 83f 83f
5:50am 9ft 8s 6s 25 31 mph 1013.3mb 83f 83f
4:50am 9ft 8s 6s 25 31 mph 1012.8mb 83f 83f
3:50am 8.5ft 9s 6s 25 29 mph 1012.4mb 83f 83f
2:50am 8.5ft 8s 6s 25 31 mph 1012.5mb 83f 83f
1:50am 9ft 8s 6s 22 29 mph 1013.2mb 83f 83f
12:50am 8ft 7s 6s 25 29 mph 1013.3mb 83f 83f
Tue 06/21 11:50pm 9.5ft 8s 7s 25 31 mph 1013.6mb 83f 83f
10:50pm 9ft 8s 6s 25 31 mph 1014mb 83f 83f
9:50pm 9ft 8s 6s 25 29 mph 1013.8mb 83f 83f
8:50pm 8.5ft 9s 6s 22 29 mph 1013.4mb 83f 83f
7:50pm 8.5ft 9s 7s 22 27 mph 1013.4mb 83f 83f
6:50pm 9.5ft 8s 7s 22 27 mph 1012.9mb 83f 83f
5:50pm 8.5ft 9s 7s 20 22 mph 1012.4mb 83f 83f
4:50pm 10ft 8s 7s 20 25 mph 1012.2mb 83f 83f
3:50pm 8.5ft 8s 7s 22 27 mph 1012mb 83f 83f